sensor_id;sensor_type;location;lat;lon;timestamp;pressure;altitude;pressure_sealevel;temperature;humidity
76108;BME280;64834;52.516;10.528;2023-06-24T00:01:20;101733.38;;;14.15;94.66
76108;BME280;64834;52.516;10.528;2023-06-24T00:03:47;101731.53;;;14.14;94.75
76108;BME280;64834;52.516;10.528;2023-06-24T00:06:13;101728.75;;;14.11;94.82
76108;BME280;64834;52.516;10.528;2023-06-24T00:08:44;101736.00;;;14.15;94.42
76108;BME280;64834;52.516;10.528;2023-06-24T00:11:10;101735.88;;;14.13;94.89
76108;BME280;64834;52.516;10.528;2023-06-24T00:13:35;101735.09;;;14.14;95.03
76108;BME280;64834;52.516;10.528;2023-06-24T00:16:01;101740.53;;;14.17;94.73
76108;BME280;64834;52.516;10.528;2023-06-24T00:18:26;101739.34;;;14.12;95.28
76108;BME280;64834;52.516;10.528;2023-06-24T00:20:54;101738.28;;;14.09;95.88
76108;BME280;64834;52.516;10.528;2023-06-24T00:23:22;101742.63;;;14.08;96.39
76108;BME280;64834;52.516;10.528;2023-06-24T00:25:52;101738.72;;;14.01;96.45
76108;BME280;64834;52.516;10.528;2023-06-24T00:28:18;101738.47;;;13.97;96.41
76108;BME280;64834;52.516;10.528;2023-06-24T00:30:44;101730.38;;;13.94;97.06
76108;BME280;64834;52.516;10.528;2023-06-24T00:33:09;101729.47;;;13.93;97.06
76108;BME280;64834;52.516;10.528;2023-06-24T00:35:38;101737.81;;;14.01;96.24
76108;BME280;64834;52.516;10.528;2023-06-24T00:38:04;101736.00;;;14.00;95.64
76108;BME280;64834;52.516;10.528;2023-06-24T00:40:29;101743.97;;;14.01;94.86
76108;BME280;64834;52.516;10.528;2023-06-24T00:42:55;101743.53;;;13.94;94.50
76108;BME280;64834;52.516;10.528;2023-06-24T00:45:22;101745.09;;;13.90;93.99
76108;BME280;64834;52.516;10.528;2023-06-24T00:47:47;101752.97;;;13.75;95.73
76108;BME280;64834;52.516;10.528;2023-06-24T00:50:14;101760.97;;;13.77;96.64
76108;BME280;64834;52.516;10.528;2023-06-24T00:52:39;101760.69;;;13.87;96.11
76108;BME280;64834;52.516;10.528;2023-06-24T00:55:08;101768.41;;;13.84;95.36
76108;BME280;64834;52.516;10.528;2023-06-24T00:57:34;101763.03;;;13.83;95.65
76108;BME280;64834;52.516;10.528;2023-06-24T01:00:03;101762.88;;;13.65;96.67
76108;BME280;64834;52.516;10.528;2023-06-24T01:02:33;101764.97;;;13.70;96.89
76108;BME280;64834;52.516;10.528;2023-06-24T01:05:02;101766.13;;;13.75;96.42
76108;BME280;64834;52.516;10.528;2023-06-24T01:07:29;101771.84;;;13.68;96.13
76108;BME280;64834;52.516;10.528;2023-06-24T01:09:56;101772.38;;;13.63;97.10
76108;BME280;64834;52.516;10.528;2023-06-24T01:12:22;101766.56;;;13.54;97.61
76108;BME280;64834;52.516;10.528;2023-06-24T01:14:47;101770.94;;;13.53;97.75
76108;BME280;64834;52.516;10.528;2023-06-24T01:17:16;101761.03;;;13.49;98.47
76108;BME280;64834;52.516;10.528;2023-06-24T01:19:55;101772.06;;;13.43;98.25
76108;BME280;64834;52.516;10.528;2023-06-24T01:22:43;101768.97;;;13.36;98.77
76108;BME280;64834;52.516;10.528;2023-06-24T01:34:33;101767.78;;;13.31;96.37
76108;BME280;64834;52.516;10.528;2023-06-24T01:36:40;101774.28;;;13.22;96.85
76108;BME280;64834;52.516;10.528;2023-06-24T01:39:08;101772.25;;;13.18;97.41
76108;BME280;64834;52.516;10.528;2023-06-24T01:41:38;101770.97;;;13.12;98.20
76108;BME280;64834;52.516;10.528;2023-06-24T01:44:05;101781.75;;;13.16;99.18
76108;BME280;64834;52.516;10.528;2023-06-24T01:46:32;101780.78;;;13.14;99.02
76108;BME280;64834;52.516;10.528;2023-06-24T01:49:01;101776.50;;;13.16;98.99
76108;BME280;64834;52.516;10.528;2023-06-24T01:51:30;101778.44;;;13.06;99.54
76108;BME280;64834;52.516;10.528;2023-06-24T01:54:01;101778.22;;;13.16;100.00
76108;BME280;64834;52.516;10.528;2023-06-24T01:56:28;101779.75;;;13.12;99.35
76108;BME280;64834;52.516;10.528;2023-06-24T01:58:55;101778.31;;;13.17;99.27
76108;BME280;64834;52.516;10.528;2023-06-24T02:01:22;101770.66;;;13.07;97.10
76108;BME280;64834;52.516;10.528;2023-06-24T02:03:49;101769.63;;;12.90;95.67
76108;BME280;64834;52.516;10.528;2023-06-24T02:06:16;101767.16;;;12.93;95.84
76108;BME280;64834;52.516;10.528;2023-06-24T02:08:43;101771.03;;;12.85;95.81
76108;BME280;64834;52.516;10.528;2023-06-24T02:11:09;101779.66;;;12.69;96.29
76108;BME280;64834;52.516;10.528;2023-06-24T02:13:35;101783.41;;;12.60;96.65
76108;BME280;64834;52.516;10.528;2023-06-24T02:16:02;101782.69;;;12.62;97.34
76108;BME280;64834;52.516;10.528;2023-06-24T02:18:31;101780.41;;;12.54;97.67
76108;BME280;64834;52.516;10.528;2023-06-24T02:20:56;101781.50;;;12.57;99.27
76108;BME280;64834;52.516;10.528;2023-06-24T02:23:22;101780.72;;;12.45;100.00
76108;BME280;64834;52.516;10.528;2023-06-24T02:25:49;101783.34;;;12.45;100.00
76108;BME280;64834;52.516;10.528;2023-06-24T02:28:17;101779.19;;;12.49;100.00
76108;BME280;64834;52.516;10.528;2023-06-24T02:30:42;101783.84;;;12.53;100.00
76108;BME280;64834;52.516;10.528;2023-06-24T02:33:09;101771.69;;;12.55;100.00
76108;BME280;64834;52.516;10.528;2023-06-24T02:35:37;101777.56;;;12.64;100.00
76108;BME280;64834;52.516;10.528;2023-06-24T02:38:02;101776.34;;;12.59;100.00
76108;BME280;64834;52.516;10.528;2023-06-24T02:40:28;101774.63;;;12.59;100.00
76108;BME280;64834;52.516;10.528;2023-06-24T02:42:54;101768.97;;;12.66;99.94
76108;BME280;64834;52.516;10.528;2023-06-24T02:45:20;101768.44;;;12.72;99.19
76108;BME280;64834;52.516;10.528;2023-06-24T02:47:46;101765.63;;;12.56;97.35
76108;BME280;64834;52.516;10.528;2023-06-24T02:50:12;101764.63;;;12.54;97.65
76108;BME280;64834;52.516;10.528;2023-06-24T02:52:40;101765.66;;;12.42;98.05
76108;BME280;64834;52.516;10.528;2023-06-24T02:55:06;101763.44;;;12.22;99.83
76108;BME280;64834;52.516;10.528;2023-06-24T02:57:33;101764.25;;;12.21;100.00
76108;BME280;64834;52.516;10.528;2023-06-24T03:00:01;101767.47;;;12.17;100.00
76108;BME280;64834;52.516;10.528;2023-06-24T03:02:33;101774.75;;;12.21;100.00
76108;BME280;64834;52.516;10.528;2023-06-24T03:04:59;101764.44;;;12.24;100.00
76108;BME280;64834;52.516;10.528;2023-06-24T03:07:27;101763.84;;;12.41;100.00
76108;BME280;64834;52.516;10.528;2023-06-24T03:09:53;101772.03;;;12.46;99.97
76108;BME280;64834;52.516;10.528;2023-06-24T03:12:18;101774.56;;;12.45;99.75
76108;BME280;64834;52.516;10.528;2023-06-24T03:14:44;101773.13;;;12.36;98.86
76108;BME280;64834;52.516;10.528;2023-06-24T03:17:09;101776.16;;;12.29;99.18
76108;BME280;64834;52.516;10.528;2023-06-24T03:19:36;101778.47;;;12.25;99.14
76108;BME280;64834;52.516;10.528;2023-06-24T03:22:01;101779.59;;;12.28;99.63
76108;BME280;64834;52.516;10.528;2023-06-24T03:24:27;101781.09;;;12.25;100.00
76108;BME280;64834;52.516;10.528;2023-06-24T03:26:52;101782.94;;;12.26;100.00
76108;BME280;64834;52.516;10.528;2023-06-24T03:29:24;101784.25;;;12.32;100.00
76108;BME280;64834;52.516;10.528;2023-06-24T03:31:49;101780.81;;;12.33;100.00
76108;BME280;64834;52.516;10.528;2023-06-24T03:34:15;101781.91;;;12.37;100.00
76108;BME280;64834;52.516;10.528;2023-06-24T03:36:42;101789.38;;;12.44;100.00
76108;BME280;64834;52.516;10.528;2023-06-24T03:39:07;101799.78;;;12.42;100.00
76108;BME280;64834;52.516;10.528;2023-06-24T03:41:32;101800.41;;;12.52;100.00
76108;BME280;64834;52.516;10.528;2023-06-24T03:43:57;101807.38;;;12.51;100.00
76108;BME280;64834;52.516;10.528;2023-06-24T03:46:23;101800.09;;;12.47;100.00
76108;BME280;64834;52.516;10.528;2023-06-24T03:48:50;101800.00;;;12.59;100.00
76108;BME280;64834;52.516;10.528;2023-06-24T03:51:17;101804.72;;;12.64;100.00
76108;BME280;64834;52.516;10.528;2023-06-24T03:53:43;101803.09;;;12.66;100.00
76108;BME280;64834;52.516;10.528;2023-06-24T03:56:08;101808.34;;;12.66;100.00
76108;BME280;64834;52.516;10.528;2023-06-24T03:58:33;101806.31;;;12.76;100.00
76108;BME280;64834;52.516;10.528;2023-06-24T04:01:00;101803.38;;;13.26;99.82
76108;BME280;64834;52.516;10.528;2023-06-24T04:03:25;101806.69;;;13.94;96.36
76108;BME280;64834;52.516;10.528;2023-06-24T04:05:53;101797.88;;;14.38;93.21
76108;BME280;64834;52.516;10.528;2023-06-24T04:08:18;101806.66;;;14.68;91.13
76108;BME280;64834;52.516;10.528;2023-06-24T04:10:43;101812.69;;;14.81;90.62
76108;BME280;64834;52.516;10.528;2023-06-24T04:13:09;101812.38;;;15.23;89.04
76108;BME280;64834;52.516;10.528;2023-06-24T04:15:34;101813.50;;;15.77;86.27
76108;BME280;64834;52.516;10.528;2023-06-24T04:17:59;101802.25;;;16.31;83.56
76108;BME280;64834;52.516;10.528;2023-06-24T04:20:25;101818.59;;;15.90;84.92
76108;BME280;64834;52.516;10.528;2023-06-24T04:22:50;101815.41;;;16.13;84.36
76108;BME280;64834;52.516;10.528;2023-06-24T04:25:15;101802.19;;;16.30;84.17
76108;BME280;64834;52.516;10.528;2023-06-24T04:27:41;101806.03;;;16.36;83.65
76108;BME280;64834;52.516;10.528;2023-06-24T04:30:06;101808.88;;;16.23;84.59
76108;BME280;64834;52.516;10.528;2023-06-24T04:32:32;101802.19;;;15.96;85.81
76108;BME280;64834;52.516;10.528;2023-06-24T04:35:00;101801.66;;;15.69;88.24
76108;BME280;64834;52.516;10.528;2023-06-24T04:37:29;101805.28;;;15.38;90.15
76108;BME280;64834;52.516;10.528;2023-06-24T04:39:54;101810.63;;;15.23;92.07
76108;BME280;64834;52.516;10.528;2023-06-24T04:42:20;101813.16;;;15.05;92.20
76108;BME280;64834;52.516;10.528;2023-06-24T04:44:45;101816.56;;;15.19;92.60
76108;BME280;64834;52.516;10.528;2023-06-24T04:47:10;101820.28;;;15.23;92.46
76108;BME280;64834;52.516;10.528;2023-06-24T04:49:38;101822.66;;;15.18;93.79
76108;BME280;64834;52.516;10.528;2023-06-24T04:52:05;101810.78;;;15.26;93.01
76108;BME280;64834;52.516;10.528;2023-06-24T04:54:31;101823.91;;;15.41;93.16
76108;BME280;64834;52.516;10.528;2023-06-24T04:56:56;101824.13;;;15.46;93.88
76108;BME280;64834;52.516;10.528;2023-06-24T04:59:22;101827.59;;;15.45;94.55
76108;BME280;64834;52.516;10.528;2023-06-24T05:01:47;101822.59;;;15.49;94.26
76108;BME280;64834;52.516;10.528;2023-06-24T05:04:13;101827.28;;;15.38;94.38
76108;BME280;64834;52.516;10.528;2023-06-24T05:06:38;101822.91;;;15.23;96.01
76108;BME280;64834;52.516;10.528;2023-06-24T05:09:03;101829.81;;;15.04;97.64
76108;BME280;64834;52.516;10.528;2023-06-24T05:11:29;101833.56;;;14.93;98.82
76108;BME280;64834;52.516;10.528;2023-06-24T05:13:54;101832.78;;;14.79;99.90
76108;BME280;64834;52.516;10.528;2023-06-24T05:16:20;101829.34;;;14.80;100.00
76108;BME280;64834;52.516;10.528;2023-06-24T05:18:45;101830.78;;;14.75;100.00
76108;BME280;64834;52.516;10.528;2023-06-24T05:21:11;101823.09;;;14.78;100.00
76108;BME280;64834;52.516;10.528;2023-06-24T05:23:36;101829.19;;;14.77;100.00
76108;BME280;64834;52.516;10.528;2023-06-24T05:26:01;101823.22;;;14.81;100.00
76108;BME280;64834;52.516;10.528;2023-06-24T05:28:26;101820.94;;;14.88;100.00
76108;BME280;64834;52.516;10.528;2023-06-24T05:30:52;101818.09;;;14.99;100.00
76108;BME280;64834;52.516;10.528;2023-06-24T05:33:17;101824.59;;;15.06;100.00
76108;BME280;64834;52.516;10.528;2023-06-24T05:35:43;101827.31;;;15.07;100.00
76108;BME280;64834;52.516;10.528;2023-06-24T05:38:09;101840.53;;;15.24;100.00
76108;BME280;64834;52.516;10.528;2023-06-24T05:40:34;101837.69;;;15.35;100.00
76108;BME280;64834;52.516;10.528;2023-06-24T05:42:59;101833.72;;;15.27;99.25
76108;BME280;64834;52.516;10.528;2023-06-24T05:45:26;101844.00;;;15.39;99.61
76108;BME280;64834;52.516;10.528;2023-06-24T05:47:51;101841.13;;;15.51;100.00
76108;BME280;64834;52.516;10.528;2023-06-24T05:50:16;101841.28;;;15.37;99.38
76108;BME280;64834;52.516;10.528;2023-06-24T05:52:42;101842.13;;;15.53;100.00
76108;BME280;64834;52.516;10.528;2023-06-24T05:55:07;101848.81;;;15.46;99.77
76108;BME280;64834;52.516;10.528;2023-06-24T05:57:33;101851.19;;;15.58;100.00
76108;BME280;64834;52.516;10.528;2023-06-24T05:59:58;101851.28;;;15.59;99.56
76108;BME280;64834;52.516;10.528;2023-06-24T06:02:23;101854.44;;;15.85;99.61
76108;BME280;64834;52.516;10.528;2023-06-24T06:04:49;101857.88;;;15.84;97.32
76108;BME280;64834;52.516;10.528;2023-06-24T06:07:15;101860.44;;;15.82;97.90
76108;BME280;64834;52.516;10.528;2023-06-24T06:09:40;101857.72;;;15.81;97.50
76108;BME280;64834;52.516;10.528;2023-06-24T06:12:06;101865.56;;;15.79;97.87
76108;BME280;64834;52.516;10.528;2023-06-24T06:14:32;101855.84;;;15.78;98.15
76108;BME280;64834;52.516;10.528;2023-06-24T06:16:57;101863.00;;;15.97;98.34
76108;BME280;64834;52.516;10.528;2023-06-24T06:19:22;101855.53;;;16.06;97.49
76108;BME280;64834;52.516;10.528;2023-06-24T06:21:49;101852.28;;;16.28;97.02
76108;BME280;64834;52.516;10.528;2023-06-24T06:24:14;101853.66;;;16.38;95.84
76108;BME280;64834;52.516;10.528;2023-06-24T06:26:43;101845.66;;;16.54;95.55
76108;BME280;64834;52.516;10.528;2023-06-24T06:29:09;101846.88;;;16.61;93.62
76108;BME280;64834;52.516;10.528;2023-06-24T06:31:34;101853.72;;;16.91;92.93
76108;BME280;64834;52.516;10.528;2023-06-24T06:33:59;101853.78;;;17.30;91.01
76108;BME280;64834;52.516;10.528;2023-06-24T06:36:25;101859.16;;;17.14;90.83
76108;BME280;64834;52.516;10.528;2023-06-24T06:38:50;101862.34;;;17.24;90.84
76108;BME280;64834;52.516;10.528;2023-06-24T06:41:16;101854.06;;;17.36;89.87
76108;BME280;64834;52.516;10.528;2023-06-24T06:43:42;101847.34;;;17.82;87.77
76108;BME280;64834;52.516;10.528;2023-06-24T06:46:07;101860.22;;;17.93;88.10
76108;BME280;64834;52.516;10.528;2023-06-24T06:48:33;101846.56;;;18.45;84.96
76108;BME280;64834;52.516;10.528;2023-06-24T06:50:58;101851.66;;;18.20;84.73
76108;BME280;64834;52.516;10.528;2023-06-24T06:53:23;101837.34;;;19.00;82.18
76108;BME280;64834;52.516;10.528;2023-06-24T06:55:49;101844.47;;;19.01;82.37
76108;BME280;64834;52.516;10.528;2023-06-24T06:58:14;101842.09;;;19.31;80.32
76108;BME280;64834;52.516;10.528;2023-06-24T07:00:40;101836.75;;;19.07;79.17
76108;BME280;64834;52.516;10.528;2023-06-24T07:03:05;101832.53;;;18.27;82.40
76108;BME280;64834;52.516;10.528;2023-06-24T07:05:30;101833.97;;;18.40;81.89
76108;BME280;64834;52.516;10.528;2023-06-24T07:07:55;101838.97;;;18.96;80.78
76108;BME280;64834;52.516;10.528;2023-06-24T07:10:21;101841.97;;;19.28;77.51
76108;BME280;64834;52.516;10.528;2023-06-24T07:12:46;101844.28;;;19.65;76.38
76108;BME280;64834;52.516;10.528;2023-06-24T07:15:11;101843.16;;;20.57;74.65
76108;BME280;64834;52.516;10.528;2023-06-24T07:17:37;101851.63;;;20.72;72.23
76108;BME280;64834;52.516;10.528;2023-06-24T07:20:02;101844.53;;;20.20;72.64
76108;BME280;64834;52.516;10.528;2023-06-24T07:22:28;101844.25;;;20.38;71.96
76108;BME280;64834;52.516;10.528;2023-06-24T07:24:55;101848.22;;;21.32;71.80
76108;BME280;64834;52.516;10.528;2023-06-24T07:27:21;101848.66;;;21.47;68.87
76108;BME280;64834;52.516;10.528;2023-06-24T07:29:46;101859.94;;;20.05;73.31
76108;BME280;64834;52.516;10.528;2023-06-24T07:32:12;101867.78;;;19.09;75.48
76108;BME280;64834;52.516;10.528;2023-06-24T07:34:37;101866.13;;;19.11;77.07
76108;BME280;64834;52.516;10.528;2023-06-24T07:37:03;101866.09;;;20.55;71.14
76108;BME280;64834;52.516;10.528;2023-06-24T07:39:28;101867.31;;;21.47;66.01
76108;BME280;64834;52.516;10.528;2023-06-24T07:41:53;101866.22;;;21.71;65.99
76108;BME280;64834;52.516;10.528;2023-06-24T07:44:18;101867.44;;;22.47;63.33
76108;BME280;64834;52.516;10.528;2023-06-24T07:46:44;101860.94;;;22.70;63.46
76108;BME280;64834;52.516;10.528;2023-06-24T07:49:10;101865.16;;;21.07;67.72
76108;BME280;64834;52.516;10.528;2023-06-24T07:51:35;101871.81;;;20.66;67.97
76108;BME280;64834;52.516;10.528;2023-06-24T07:54:01;101872.81;;;20.69;68.85
76108;BME280;64834;52.516;10.528;2023-06-24T07:56:26;101866.19;;;20.84;67.25
76108;BME280;64834;52.516;10.528;2023-06-24T07:58:51;101861.09;;;21.18;65.78
76108;BME280;64834;52.516;10.528;2023-06-24T08:01:16;101862.88;;;21.19;66.00
76108;BME280;64834;52.516;10.528;2023-06-24T08:03:42;101855.53;;;21.39;64.99
76108;BME280;64834;52.516;10.528;2023-06-24T08:06:07;101851.38;;;21.20;65.75
76108;BME280;64834;52.516;10.528;2023-06-24T08:08:32;101850.19;;;22.32;61.92
76108;BME280;64834;52.516;10.528;2023-06-24T08:10:58;101851.16;;;22.36;60.46
76108;BME280;64834;52.516;10.528;2023-06-24T08:13:23;101858.81;;;21.31;63.73
76108;BME280;64834;52.516;10.528;2023-06-24T08:15:48;101855.84;;;21.21;66.42
76108;BME280;64834;52.516;10.528;2023-06-24T08:18:14;101852.09;;;21.73;64.46
76108;BME280;64834;52.516;10.528;2023-06-24T08:20:39;101850.88;;;21.62;63.54
76108;BME280;64834;52.516;10.528;2023-06-24T08:23:04;101842.50;;;22.45;61.30
76108;BME280;64834;52.516;10.528;2023-06-24T08:25:30;101839.16;;;22.88;59.34
76108;BME280;64834;52.516;10.528;2023-06-24T08:27:55;101842.44;;;23.56;58.18
76108;BME280;64834;52.516;10.528;2023-06-24T08:30:21;101835.47;;;23.21;55.27
76108;BME280;64834;52.516;10.528;2023-06-24T08:32:46;101841.47;;;23.53;58.17
76108;BME280;64834;52.516;10.528;2023-06-24T08:35:11;101843.22;;;22.74;57.92
76108;BME280;64834;52.516;10.528;2023-06-24T08:37:37;101838.88;;;23.13;58.50
76108;BME280;64834;52.516;10.528;2023-06-24T08:40:03;101841.06;;;22.57;59.04
76108;BME280;64834;52.516;10.528;2023-06-24T08:42:32;101840.78;;;22.47;58.05
76108;BME280;64834;52.516;10.528;2023-06-24T08:44:57;101839.53;;;22.69;59.59
76108;BME280;64834;52.516;10.528;2023-06-24T08:47:24;101844.09;;;22.73;56.67
76108;BME280;64834;52.516;10.528;2023-06-24T08:49:53;101851.00;;;23.38;56.92
76108;BME280;64834;52.516;10.528;2023-06-24T08:52:25;101846.31;;;23.30;56.82
76108;BME280;64834;52.516;10.528;2023-06-24T08:54:51;101847.34;;;22.61;59.37
76108;BME280;64834;52.516;10.528;2023-06-24T08:57:20;101844.06;;;22.37;56.31
76108;BME280;64834;52.516;10.528;2023-06-24T08:59:45;101848.09;;;21.89;55.18
76108;BME280;64834;52.516;10.528;2023-06-24T09:02:10;101843.03;;;23.01;54.83
76108;BME280;64834;52.516;10.528;2023-06-24T09:04:36;101852.59;;;23.32;56.14
76108;BME280;64834;52.516;10.528;2023-06-24T09:07:02;101843.72;;;22.94;55.99
76108;BME280;64834;52.516;10.528;2023-06-24T09:09:28;101842.34;;;22.75;55.06
76108;BME280;64834;52.516;10.528;2023-06-24T09:11:58;101843.69;;;22.21;57.31
76108;BME280;64834;52.516;10.528;2023-06-24T09:14:25;101839.34;;;22.61;57.58
76108;BME280;64834;52.516;10.528;2023-06-24T09:16:59;101839.59;;;22.35;59.51
76108;BME280;64834;52.516;10.528;2023-06-24T09:19:28;101847.25;;;21.90;58.51
76108;BME280;64834;52.516;10.528;2023-06-24T09:22:08;101840.97;;;22.89;58.44
76108;BME280;64834;52.516;10.528;2023-06-24T09:24:35;101844.44;;;22.86;53.52
76108;BME280;64834;52.516;10.528;2023-06-24T09:27:01;101834.34;;;23.11;52.17
76108;BME280;64834;52.516;10.528;2023-06-24T09:29:28;101838.69;;;22.70;55.39
76108;BME280;64834;52.516;10.528;2023-06-24T09:31:54;101836.03;;;22.70;53.76
76108;BME280;64834;52.516;10.528;2023-06-24T09:34:21;101828.31;;;23.20;53.91
76108;BME280;64834;52.516;10.528;2023-06-24T09:36:54;101816.97;;;22.91;53.58
76108;BME280;64834;52.516;10.528;2023-06-24T09:39:20;101822.56;;;23.43;55.64
76108;BME280;64834;52.516;10.528;2023-06-24T09:41:54;101816.44;;;23.48;52.74
76108;BME280;64834;52.516;10.528;2023-06-24T09:44:20;101819.44;;;23.22;51.49
76108;BME280;64834;52.516;10.528;2023-06-24T09:46:45;101830.38;;;22.94;52.25
76108;BME280;64834;52.516;10.528;2023-06-24T09:49:11;101824.81;;;22.86;52.78
76108;BME280;64834;52.516;10.528;2023-06-24T09:51:38;101826.44;;;22.79;51.00
76108;BME280;64834;52.516;10.528;2023-06-24T09:54:08;101827.50;;;23.24;52.23
76108;BME280;64834;52.516;10.528;2023-06-24T09:56:48;101817.34;;;23.92;50.22
76108;BME280;64834;52.516;10.528;2023-06-24T09:59:14;101814.31;;;24.20;50.93
76108;BME280;64834;52.516;10.528;2023-06-24T10:01:42;101812.00;;;23.93;51.33
76108;BME280;64834;52.516;10.528;2023-06-24T10:04:09;101815.22;;;23.76;51.15
76108;BME280;64834;52.516;10.528;2023-06-24T10:06:35;101805.44;;;23.32;51.72
76108;BME280;64834;52.516;10.528;2023-06-24T10:09:01;101806.41;;;22.95;52.19
76108;BME280;64834;52.516;10.528;2023-06-24T10:11:27;101807.97;;;22.87;52.68
76108;BME280;64834;52.516;10.528;2023-06-24T10:13:52;101815.03;;;23.24;52.69
76108;BME280;64834;52.516;10.528;2023-06-24T10:16:18;101801.41;;;23.53;52.82
76108;BME280;64834;52.516;10.528;2023-06-24T10:18:44;101798.53;;;23.87;51.91
76108;BME280;64834;52.516;10.528;2023-06-24T10:21:11;101806.50;;;23.40;52.93
76108;BME280;64834;52.516;10.528;2023-06-24T10:26:30;101802.84;;;24.28;50.20
76108;BME280;64834;52.516;10.528;2023-06-24T10:34:30;101790.28;;;24.25;50.47
76108;BME280;64834;52.516;10.528;2023-06-24T10:39:35;101783.88;;;24.14;53.13
76108;BME280;64834;52.516;10.528;2023-06-24T10:42:32;101782.13;;;24.16;52.08
76108;BME280;64834;52.516;10.528;2023-06-24T10:45:18;101778.25;;;23.99;50.44
76108;BME280;64834;52.516;10.528;2023-06-24T10:47:50;101779.31;;;23.61;53.89
76108;BME280;64834;52.516;10.528;2023-06-24T10:50:22;101768.47;;;23.55;51.95
76108;BME280;64834;52.516;10.528;2023-06-24T10:52:50;101771.19;;;24.02;53.58
76108;BME280;64834;52.516;10.528;2023-06-24T10:55:18;101769.88;;;24.30;52.06
76108;BME280;64834;52.516;10.528;2023-06-24T10:57:45;101764.94;;;24.02;52.21
76108;BME280;64834;52.516;10.528;2023-06-24T11:00:12;101758.19;;;24.23;52.79
76108;BME280;64834;52.516;10.528;2023-06-24T11:02:37;101762.38;;;24.08;52.61
76108;BME280;64834;52.516;10.528;2023-06-24T11:05:04;101754.22;;;24.52;55.72
76108;BME280;64834;52.516;10.528;2023-06-24T11:07:31;101764.25;;;24.66;51.32
76108;BME280;64834;52.516;10.528;2023-06-24T11:10:03;101760.75;;;24.72;51.54
76108;BME280;64834;52.516;10.528;2023-06-24T11:12:31;101752.72;;;24.70;51.03
76108;BME280;64834;52.516;10.528;2023-06-24T11:14:58;101747.94;;;24.51;51.43
76108;BME280;64834;52.516;10.528;2023-06-24T11:17:25;101747.09;;;24.52;50.75
76108;BME280;64834;52.516;10.528;2023-06-24T11:19:52;101747.31;;;24.69;50.10
76108;BME280;64834;52.516;10.528;2023-06-24T11:22:18;101747.56;;;24.87;48.69
76108;BME280;64834;52.516;10.528;2023-06-24T11:24:43;101740.56;;;24.95;48.53
76108;BME280;64834;52.516;10.528;2023-06-24T11:27:09;101738.63;;;24.85;51.30
76108;BME280;64834;52.516;10.528;2023-06-24T11:29:35;101739.72;;;24.99;51.83
76108;BME280;64834;52.516;10.528;2023-06-24T11:32:01;101739.25;;;24.64;52.01
76108;BME280;64834;52.516;10.528;2023-06-24T11:34:27;101733.94;;;24.69;50.24
76108;BME280;64834;52.516;10.528;2023-06-24T11:36:52;101733.28;;;24.85;52.06
76108;BME280;64834;52.516;10.528;2023-06-24T11:39:26;101730.53;;;24.82;49.16
76108;BME280;64834;52.516;10.528;2023-06-24T11:41:53;101725.69;;;25.16;49.24
76108;BME280;64834;52.516;10.528;2023-06-24T11:44:20;101731.75;;;25.04;49.87
76108;BME280;64834;52.516;10.528;2023-06-24T11:46:45;101729.53;;;24.74;49.47
76108;BME280;64834;52.516;10.528;2023-06-24T11:49:11;101722.25;;;24.64;48.03
76108;BME280;64834;52.516;10.528;2023-06-24T11:51:45;101720.69;;;24.78;49.15
76108;BME280;64834;52.516;10.528;2023-06-24T11:54:14;101724.59;;;25.03;48.83
76108;BME280;64834;52.516;10.528;2023-06-24T11:56:41;101718.44;;;25.09;48.64
76108;BME280;64834;52.516;10.528;2023-06-24T11:59:14;101724.41;;;25.64;48.30
76108;BME280;64834;52.516;10.528;2023-06-24T12:01:42;101721.00;;;25.77;48.42
76108;BME280;64834;52.516;10.528;2023-06-24T12:04:12;101724.91;;;26.13;46.55
76108;BME280;64834;52.516;10.528;2023-06-24T12:06:39;101720.31;;;25.99;46.11
76108;BME280;64834;52.516;10.528;2023-06-24T12:09:05;101720.88;;;25.68;46.30
76108;BME280;64834;52.516;10.528;2023-06-24T12:11:30;101715.59;;;25.72;45.70
76108;BME280;64834;52.516;10.528;2023-06-24T12:13:55;101718.69;;;26.18;44.82
76108;BME280;64834;52.516;10.528;2023-06-24T12:16:21;101710.63;;;26.17;45.68
76108;BME280;64834;52.516;10.528;2023-06-24T12:18:48;101714.50;;;25.52;46.56
76108;BME280;64834;52.516;10.528;2023-06-24T12:21:13;101713.06;;;25.85;46.70
76108;BME280;64834;52.516;10.528;2023-06-24T12:23:38;101704.19;;;25.93;45.30
76108;BME280;64834;52.516;10.528;2023-06-24T12:26:04;101708.78;;;26.09;45.78
76108;BME280;64834;52.516;10.528;2023-06-24T12:28:29;101712.44;;;26.21;47.87
76108;BME280;64834;52.516;10.528;2023-06-24T12:30:54;101708.09;;;26.38;47.90
76108;BME280;64834;52.516;10.528;2023-06-24T12:33:20;101697.34;;;26.35;45.47
76108;BME280;64834;52.516;10.528;2023-06-24T12:35:47;101701.63;;;26.10;45.47
76108;BME280;64834;52.516;10.528;2023-06-24T12:38:13;101698.03;;;26.06;44.67
76108;BME280;64834;52.516;10.528;2023-06-24T12:40:38;101692.50;;;25.87;45.35
76108;BME280;64834;52.516;10.528;2023-06-24T12:43:04;101692.00;;;26.38;46.22
76108;BME280;64834;52.516;10.528;2023-06-24T12:45:29;101688.22;;;26.12;45.99
76108;BME280;64834;52.516;10.528;2023-06-24T12:47:55;101680.66;;;26.89;45.15
76108;BME280;64834;52.516;10.528;2023-06-24T12:50:20;101679.56;;;26.49;44.92
76108;BME280;64834;52.516;10.528;2023-06-24T12:52:45;101685.34;;;25.84;45.14
76108;BME280;64834;52.516;10.528;2023-06-24T12:55:11;101682.22;;;26.40;44.14